El Centro Naf Airport
KNJK : rendu visible

Aérodrome :











RETROUVEZ-NOUS SUR...

 
LOGIN :

S'inscrire | Disclaimer

   EN    FR    IT 

 









Légende :    VFR   VFR Marginal   IFR   IFR Intensif   IFR Très Intensif
Visi : 
Plafond : 
>= 8 km
>= 3000ft
5 à 8 km
1000 à 3000 ft
1500m à 5 km
500 à 1000 ft
800 à 1500m
200 à 500 ft
< 800m
< 200 ft
Symboles :   Orages  Brouillard  Fortes neiges  Fortes précipitations  Vent > 20 kt






- Altitude de l'aérodrome : -42 ft


KNJK - El Centro Naf

DERNIER METAR :
  • 172356Z VRB04KT 10SM FEW060 SCT250 20/02 A3017 RMK AO2 SLP233 T02000017 10200 20172 55007 $

METARs EXPIRÉS :
  • 172256Z 30004KT 10SM FEW060 SCT250 19/02 A3017 RMK AO2 SLP232 T01940022 $
  • 172156Z 03007KT 10SM FEW060 BKN250 19/03 A3019 RMK AO2 SLP237 T01940033 $

TAF TAF KNJK
Valide du 17 à 23h jusqu'au 18 à 23h UTC


1723/1823 33006KT 9999 FEW060 SCT250 QNH3012INS
TEMPO 1804/1810 VRB05KT
FM181700 34008KT 9999 BKN250 QNH3018INS T06/1814Z T21/1823Z FS30142



MET'MAP, la Météo Aéronautique d'un coup d'oeil ! - Copyright ORBIFLY Décembre 2007 - Disclaimer

ORBIFLY MET'MAP TEAM :

Programmation & Développement : Alexandra Zaïnal
Sur une idée originale de : Baudouin d'Aumeries
Assistance à la programmation : Marc-Olivier Méhu
Soutien technique & logistique : Manuel Goepfert

Contact : metmap@orbifly.com




SOURCES & CREDITS :

   NOAA       Earth
Advisory